Time,TemperatureF,DewpointF,PressureIn,WindDirection,WindDirectionDegrees,WindSpeedMPH,WindSpeedGustMPH,Humidity,HourlyPrecipIn,Conditions,Clouds,dailyrainin,SoftwareType,DateUTC
2013-05-09 00:01:00,50.1,49.6,30.05,North,350,0.0,0.0,98,0.00,,,0.00,Wunderground v.1.15,2013-05-09 07:01:00,
2013-05-09 00:06:00,50.1,49.6,30.05,North,350,0.0,0.0,98,0.00,,,0.00,Wunderground v.1.15,2013-05-09 07:06:00,
2013-05-09 00:11:00,49.9,49.4,30.05,North,350,0.0,0.0,98,0.00,,,0.00,Wunderground v.1.15,2013-05-09 07:11:00,
2013-05-09 00:16:00,49.9,49.6,30.05,North,350,0.0,0.0,99,0.00,,,0.00,Wunderground v.1.15,2013-05-09 07:16:00,
2013-05-09 00:21:00,49.9,49.6,30.05,North,350,0.0,0.0,99,0.00,,,0.00,Wunderground v.1.15,2013-05-09 07:21:00,
2013-05-09 00:26:00,49.9,49.6,30.05,North,350,0.0,0.0,99,0.00,,,0.00,Wunderground v.1.15,2013-05-09 07:26:00,
2013-05-09 00:31:00,49.9,49.6,30.05,North,350,0.0,0.0,99,0.00,,,0.00,Wunderground v.1.15,2013-05-09 07:31:00,
2013-05-09 00:36:00,49.8,49.8,30.05,North,350,0.0,0.0,100,0.00,,,0.00,Wunderground v.1.15,2013-05-09 07:36:00,
2013-05-09 00:41:00,49.8,49.8,30.05,North,350,0.0,0.0,100,0.00,,,0.00,Wunderground v.1.15,2013-05-09 07:41:00,
2013-05-09 00:46:00,49.9,49.9,30.06,North,350,0.0,1.0,100,0.00,,,0.00,Wunderground v.1.15,2013-05-09 07:46:00,
2013-05-09 00:51:00,50.1,50.1,30.06,North,350,0.0,0.0,100,0.00,,,0.00,Wunderground v.1.15,2013-05-09 07:51:00,
2013-05-09 00:56:00,50.4,50.4,30.06,North,350,0.0,0.0,100,0.00,,,0.00,Wunderground v.1.15,2013-05-09 07:56:00,
2013-05-09 01:01:00,50.7,50.7,30.06,North,350,0.0,0.0,100,0.00,,,0.00,Wunderground v.1.15,2013-05-09 08:01:00,
2013-05-09 01:06:00,50.8,50.8,30.06,North,350,0.0,0.0,100,0.00,,,0.00,Wunderground v.1.15,2013-05-09 08:06:00,
2013-05-09 01:11:00,50.7,50.7,30.06,North,350,0.0,0.0,100,0.00,,,0.00,Wunderground v.1.15,2013-05-09 08:11:00,
2013-05-09 01:16:00,50.5,50.5,30.06,North,350,0.0,0.0,100,0.00,,,0.00,Wunderground v.1.15,2013-05-09 08:16:00,
2013-05-09 01:21:00,50.4,50.4,30.06,North,350,0.0,0.0,100,0.00,,,0.00,Wunderground v.1.15,2013-05-09 08:21:00,
2013-05-09 01:26:00,50.2,50.2,30.06,North,350,0.0,0.0,100,0.00,,,0.00,Wunderground v.1.15,2013-05-09 08:26:00,
2013-05-09 01:31:00,50.1,50.1,30.06,North,350,0.0,0.0,100,0.00,,,0.00,Wunderground v.1.15,2013-05-09 08:31:00,
2013-05-09 01:36:00,50.1,50.1,30.06,North,350,0.0,0.0,100,0.00,,,0.00,Wunderground v.1.15,2013-05-09 08:36:00,
2013-05-09 01:41:00,50.1,50.1,30.06,North,350,0.0,0.0,100,0.00,,,0.00,Wunderground v.1.15,2013-05-09 08:41:00,
2013-05-09 01:46:00,50.2,50.2,30.06,North,350,0.0,0.0,100,0.00,,,0.00,Wunderground v.1.15,2013-05-09 08:46:00,
2013-05-09 01:51:00,50.4,50.4,30.06,North,350,0.0,0.0,100,0.00,,,0.00,Wunderground v.1.15,2013-05-09 08:51:00,
2013-05-09 01:56:00,50.5,50.5,30.06,North,350,0.0,0.0,100,0.00,,,0.00,Wunderground v.1.15,2013-05-09 08:56:00,
2013-05-09 02:01:00,50.7,50.7,30.05,North,350,0.0,0.0,100,0.00,,,0.00,Wunderground v.1.15,2013-05-09 09:01:00,
2013-05-09 02:06:00,50.7,50.7,30.05,North,350,0.0,0.0,100,0.00,,,0.00,Wunderground v.1.15,2013-05-09 09:06:00,
2013-05-09 02:11:00,50.7,50.7,30.05,North,350,0.0,0.0,100,0.00,,,0.00,Wunderground v.1.15,2013-05-09 09:11:00,
2013-05-09 02:16:00,50.4,50.4,30.05,North,350,0.0,0.0,100,0.00,,,0.00,Wunderground v.1.15,2013-05-09 09:16:00,
2013-05-09 02:21:00,50.4,50.4,30.05,North,350,0.0,0.0,100,0.00,,,0.00,Wunderground v.1.15,2013-05-09 09:21:00,
2013-05-09 02:26:00,50.2,50.2,30.05,North,350,0.0,0.0,100,0.00,,,0.00,Wunderground v.1.15,2013-05-09 09:26:00,
2013-05-09 02:31:00,50.1,50.1,30.05,North,350,0.0,0.0,100,0.00,,,0.00,Wunderground v.1.15,2013-05-09 09:31:00,
2013-05-09 02:36:00,50.2,50.2,30.05,North,350,0.0,0.0,100,0.00,,,0.00,Wunderground v.1.15,2013-05-09 09:36:00,
2013-05-09 02:41:00,50.2,50.2,30.05,North,350,0.0,0.0,100,0.00,,,0.00,Wunderground v.1.15,2013-05-09 09:41:00,
2013-05-09 02:46:00,50.2,50.2,30.05,North,350,0.0,0.0,100,0.00,,,0.00,Wunderground v.1.15,2013-05-09 09:46:00,
2013-05-09 02:51:00,50.4,50.4,30.05,North,350,0.0,0.0,100,0.00,,,0.00,Wunderground v.1.15,2013-05-09 09:51:00,
2013-05-09 02:56:00,50.5,50.5,30.05,North,350,0.0,0.0,100,0.00,,,0.00,Wunderground v.1.15,2013-05-09 09:56:00,
2013-05-09 03:01:00,50.7,50.7,30.05,North,350,0.0,0.0,100,0.00,,,0.00,Wunderground v.1.15,2013-05-09 10:01:00,
2013-05-09 03:06:00,50.7,50.7,30.05,North,350,0.0,0.0,100,0.00,,,0.00,Wunderground v.1.15,2013-05-09 10:06:00,
2013-05-09 03:11:00,50.5,50.5,30.05,North,350,0.0,0.0,100,0.00,,,0.00,Wunderground v.1.15,2013-05-09 10:11:00,
2013-05-09 03:16:00,50.4,50.4,30.05,North,350,0.0,0.0,100,0.00,,,0.00,Wunderground v.1.15,2013-05-09 10:16:00,
2013-05-09 03:21:00,50.4,50.4,30.05,North,350,0.0,0.0,100,0.00,,,0.00,Wunderground v.1.15,2013-05-09 10:21:00,
2013-05-09 03:26:00,50.5,50.5,30.05,North,350,0.0,0.0,100,0.00,,,0.00,Wunderground v.1.15,2013-05-09 10:26:00,
2013-05-09 03:31:00,50.5,50.5,30.04,North,350,0.0,0.0,100,0.00,,,0.00,Wunderground v.1.15,2013-05-09 10:31:00,
2013-05-09 03:36:00,50.5,50.5,30.04,North,350,0.0,0.0,100,0.00,,,0.00,Wunderground v.1.15,2013-05-09 10:36:00,
2013-05-09 03:41:00,50.5,50.5,30.04,North,350,0.0,0.0,100,0.00,,,0.00,Wunderground v.1.15,2013-05-09 10:41:00,
2013-05-09 03:46:00,50.5,50.5,30.04,North,350,0.0,0.0,100,0.00,,,0.00,Wunderground v.1.15,2013-05-09 10:46:00,
2013-05-09 03:51:00,50.7,50.7,30.04,North,350,0.0,0.0,100,0.00,,,0.00,Wunderground v.1.15,2013-05-09 10:51:00,
2013-05-09 03:56:00,50.7,50.7,30.04,North,350,0.0,0.0,100,0.00,,,0.00,Wunderground v.1.15,2013-05-09 10:56:00,
2013-05-09 04:01:00,50.7,50.7,30.04,North,350,0.0,0.0,100,0.00,,,0.00,Wunderground v.1.15,2013-05-09 11:01:00,
2013-05-09 04:06:00,50.5,50.5,30.04,North,350,0.0,0.0,100,0.00,,,0.00,Wunderground v.1.15,2013-05-09 11:06:00,
2013-05-09 04:11:00,50.7,50.7,30.04,North,350,0.0,0.0,100,0.00,,,0.00,Wunderground v.1.15,2013-05-09 11:11:00,
2013-05-09 04:16:00,50.7,50.7,30.04,North,350,0.0,0.0,100,0.00,,,0.00,Wunderground v.1.15,2013-05-09 11:16:00,
2013-05-09 04:21:00,50.8,50.8,30.04,North,350,0.0,0.0,100,0.00,,,0.00,Wunderground v.1.15,2013-05-09 11:21:00,
2013-05-09 04:26:00,50.8,50.8,30.04,North,350,0.0,0.0,100,0.00,,,0.00,Wunderground v.1.15,2013-05-09 11:26:00,
2013-05-09 04:31:00,51.0,51.0,30.03,North,350,0.0,0.0,100,0.00,,,0.00,Wunderground v.1.15,2013-05-09 11:31:00,
2013-05-09 04:36:00,51.1,51.1,30.03,North,350,0.0,0.0,100,0.00,,,0.00,Wunderground v.1.15,2013-05-09 11:36:00,
2013-05-09 04:42:00,51.1,51.1,30.03,North,350,0.0,0.0,100,0.00,,,0.00,Wunderground v.1.15,2013-05-09 11:42:00,
2013-05-09 04:47:00,51.1,51.1,30.03,North,350,0.0,0.0,100,0.00,,,0.00,Wunderground v.1.15,2013-05-09 11:47:00,
2013-05-09 04:52:00,51.1,51.1,30.03,North,350,0.0,0.0,100,0.00,,,0.00,Wunderground v.1.15,2013-05-09 11:52:00,
2013-05-09 04:57:00,51.3,51.3,30.03,North,350,0.0,0.0,100,0.00,,,0.00,Wunderground v.1.15,2013-05-09 11:57:00,
2013-05-09 05:02:00,51.3,51.3,30.03,North,350,0.0,0.0,100,0.00,,,0.00,Wunderground v.1.15,2013-05-09 12:02:00,
2013-05-09 05:06:00,51.4,51.4,30.03,North,350,0.0,0.0,100,0.00,,,0.00,Wunderground v.1.15,2013-05-09 12:06:00,
2013-05-09 05:11:00,51.6,51.6,30.03,North,350,0.0,0.0,100,0.00,,,0.00,Wunderground v.1.15,2013-05-09 12:11:00,
2013-05-09 05:16:00,51.6,51.6,30.03,North,350,0.0,0.0,100,0.00,,,0.00,Wunderground v.1.15,2013-05-09 12:16:00,
2013-05-09 05:21:00,51.7,51.7,30.03,North,350,0.0,0.0,100,0.00,,,0.00,Wunderground v.1.15,2013-05-09 12:21:00,
2013-05-09 05:26:00,51.7,51.7,30.03,North,350,0.0,0.0,100,0.00,,,0.00,Wunderground v.1.15,2013-05-09 12:26:00,
2013-05-09 05:31:00,51.9,51.9,30.03,North,350,0.0,0.0,100,0.00,,,0.00,Wunderground v.1.15,2013-05-09 12:31:00,
2013-05-09 05:36:00,51.9,51.9,30.03,North,350,0.0,0.0,100,0.00,,,0.00,Wunderground v.1.15,2013-05-09 12:36:00,
2013-05-09 05:41:00,52.0,52.0,30.03,North,350,0.0,0.0,100,0.00,,,0.00,Wunderground v.1.15,2013-05-09 12:41:00,
2013-05-09 05:46:00,52.0,52.0,30.03,North,350,0.0,0.0,100,0.00,,,0.00,Wunderground v.1.15,2013-05-09 12:46:00,
2013-05-09 05:51:00,52.0,52.0,30.03,North,350,0.0,0.0,100,0.00,,,0.00,Wunderground v.1.15,2013-05-09 12:51:00,
2013-05-09 05:56:00,52.0,52.0,30.03,North,350,0.0,0.0,100,0.00,,,0.00,Wunderground v.1.15,2013-05-09 12:56:00,
2013-05-09 06:01:00,52.0,52.0,30.03,North,350,0.0,0.0,100,0.00,,,0.00,Wunderground v.1.15,2013-05-09 13:01:00,
2013-05-09 06:06:00,52.0,52.0,30.03,North,350,0.0,0.0,100,0.00,,,0.00,Wunderground v.1.15,2013-05-09 13:06:00,
2013-05-09 06:11:00,52.0,52.0,30.03,North,350,0.0,0.0,100,0.00,,,0.00,Wunderground v.1.15,2013-05-09 13:11:00,
2013-05-09 06:16:00,52.2,52.2,30.03,North,350,0.0,0.0,100,0.00,,,0.00,Wunderground v.1.15,2013-05-09 13:16:00,
2013-05-09 06:22:00,52.2,52.2,30.03,North,350,0.0,0.0,100,0.00,,,0.00,Wunderground v.1.15,2013-05-09 13:22:00,
2013-05-09 06:27:00,52.2,52.2,30.03,North,350,0.0,0.0,100,0.00,,,0.00,Wunderground v.1.15,2013-05-09 13:27:00,
2013-05-09 06:32:00,52.2,52.2,30.04,North,350,0.0,0.0,100,0.00,,,0.00,Wunderground v.1.15,2013-05-09 13:32:00,
2013-05-09 06:37:00,52.2,52.2,30.04,North,350,0.0,0.0,100,0.00,,,0.00,Wunderground v.1.15,2013-05-09 13:37:00,
2013-05-09 06:42:00,52.2,52.2,30.04,North,350,0.0,0.0,100,0.00,,,0.00,Wunderground v.1.15,2013-05-09 13:42:00,
2013-05-09 06:47:00,52.3,52.3,30.04,North,350,0.0,0.0,100,0.00,,,0.00,Wunderground v.1.15,2013-05-09 13:47:00,
2013-05-09 06:52:00,52.3,52.3,30.04,North,350,0.0,1.0,100,0.00,,,0.00,Wunderground v.1.15,2013-05-09 13:52:00,
2013-05-09 06:57:00,52.3,52.3,30.04,North,350,0.0,1.0,100,0.00,,,0.00,Wunderground v.1.15,2013-05-09 13:57:00,
2013-05-09 07:02:00,52.3,52.3,30.05,North,350,0.0,0.0,100,0.00,,,0.00,Wunderground v.1.15,2013-05-09 14:02:00,
2013-05-09 07:07:00,52.3,52.3,30.05,North,350,0.0,2.0,100,0.00,,,0.00,Wunderground v.1.15,2013-05-09 14:07:00,
2013-05-09 07:12:00,52.3,52.3,30.05,NNW,344,0.0,2.0,100,0.00,,,0.00,Wunderground v.1.15,2013-05-09 14:12:00,
2013-05-09 07:17:00,52.3,52.3,30.06,NNW,344,0.0,2.0,100,0.00,,,0.00,Wunderground v.1.15,2013-05-09 14:17:00,
2013-05-09 07:22:00,52.3,52.3,30.06,NNW,344,0.0,0.0,100,0.00,,,0.00,Wunderground v.1.15,2013-05-09 14:22:00,
2013-05-09 07:27:00,52.3,52.3,30.06,NE,39,0.0,3.0,100,0.00,,,0.00,Wunderground v.1.15,2013-05-09 14:27:00,
2013-05-09 07:32:00,52.5,52.5,30.06,NE,39,0.0,1.0,100,0.00,,,0.00,Wunderground v.1.15,2013-05-09 14:32:00,
2013-05-09 07:37:00,52.5,52.5,30.06,NE,39,0.0,2.0,100,0.00,,,0.00,Wunderground v.1.15,2013-05-09 14:37:00,
2013-05-09 07:42:00,52.5,52.5,30.06,NE,39,0.0,0.0,100,0.00,,,0.00,Wunderground v.1.15,2013-05-09 14:42:00,
2013-05-09 07:47:00,52.6,52.6,30.06,NE,39,0.0,1.0,100,0.00,,,0.00,Wunderground v.1.15,2013-05-09 14:47:00,
2013-05-09 07:52:00,52.6,52.6,30.06,NE,39,0.0,0.0,100,0.00,,,0.00,Wunderground v.1.15,2013-05-09 14:52:00,
2013-05-09 07:57:00,52.8,52.8,30.06,NE,39,0.0,0.0,100,0.00,,,0.00,Wunderground v.1.15,2013-05-09 14:57:00,
2013-05-09 08:02:00,52.9,52.6,30.06,NE,39,0.0,0.0,99,0.00,,,0.00,Wunderground v.1.15,2013-05-09 15:02:00,
2013-05-09 08:07:00,53.1,52.8,30.06,NE,39,0.0,1.0,99,0.00,,,0.00,Wunderground v.1.15,2013-05-09 15:07:00,
2013-05-09 08:12:00,53.1,52.6,30.06,NE,39,0.0,0.0,98,0.00,,,0.00,Wunderground v.1.15,2013-05-09 15:12:00,
2013-05-09 08:17:00,53.3,52.8,30.07,NE,39,0.0,0.0,98,0.00,,,0.00,Wunderground v.1.15,2013-05-09 15:17:00,
2013-05-09 08:22:00,53.5,52.7,30.07,NE,34,0.0,2.0,97,0.00,,,0.00,Wunderground v.1.15,2013-05-09 15:22:00,
2013-05-09 08:27:00,53.5,52.7,30.07,North,359,0.0,4.0,97,0.00,,,0.00,Wunderground v.1.15,2013-05-09 15:27:00,
2013-05-09 08:32:00,53.6,52.5,30.07,NNE,17,1.0,1.0,96,0.00,,,0.00,Wunderground v.1.15,2013-05-09 15:32:00,
2013-05-09 08:37:00,53.8,52.7,30.07,NNE,17,0.0,2.0,96,0.00,,,0.00,Wunderground v.1.15,2013-05-09 15:37:00,
2013-05-09 08:42:00,53.9,52.5,30.07,WNW,296,1.0,2.0,95,0.00,,,0.00,Wunderground v.1.15,2013-05-09 15:42:00,
2013-05-09 08:47:00,53.9,52.2,30.08,NE,53,0.0,4.0,94,0.00,,,0.00,Wunderground v.1.15,2013-05-09 15:47:00,
2013-05-09 08:52:00,54.2,52.5,30.08,North,355,1.0,7.0,94,0.00,,,0.00,Wunderground v.1.15,2013-05-09 15:52:00,
2013-05-09 08:57:00,54.1,52.4,30.08,North,359,1.0,7.0,94,0.00,,,0.00,Wunderground v.1.15,2013-05-09 15:57:00,
2013-05-09 09:02:00,54.2,52.2,30.08,NNW,335,2.0,3.0,93,0.00,,,0.00,Wunderground v.1.15,2013-05-09 16:02:00,
2013-05-09 09:07:00,54.2,52.2,30.08,ENE,61,0.0,4.0,93,0.00,,,0.00,Wunderground v.1.15,2013-05-09 16:07:00,
2013-05-09 09:12:00,54.4,52.4,30.08,ENE,61,1.0,1.0,93,0.00,,,0.00,Wunderground v.1.15,2013-05-09 16:12:00,
2013-05-09 09:17:00,54.5,52.5,30.08,South,172,0.0,4.0,93,0.00,,,0.00,Wunderground v.1.15,2013-05-09 16:17:00,
2013-05-09 09:22:00,54.5,52.2,30.08,West,276,1.0,2.0,92,0.00,,,0.00,Wunderground v.1.15,2013-05-09 16:22:00,
2013-05-09 09:27:00,54.7,52.4,30.08,West,276,0.0,2.0,92,0.00,,,0.00,Wunderground v.1.15,2013-05-09 16:27:00,
2013-05-09 09:32:00,55.0,52.7,30.07,SW,218,1.0,2.0,92,0.00,,,0.00,Wunderground v.1.15,2013-05-09 16:32:00,
2013-05-09 09:37:00,55.0,52.7,30.07,SSW,212,0.0,2.0,92,0.00,,,0.00,Wunderground v.1.15,2013-05-09 16:37:00,
2013-05-09 09:42:00,55.3,53.0,30.07,SW,214,0.0,1.0,92,0.00,,,0.00,Wunderground v.1.15,2013-05-09 16:42:00,
2013-05-09 09:47:00,55.6,53.0,30.07,SW,214,0.0,1.0,91,0.00,,,0.00,Wunderground v.1.15,2013-05-09 16:47:00,
2013-05-09 09:52:00,55.6,52.4,30.07,East,82,1.0,4.0,89,0.00,,,0.00,Wunderground v.1.15,2013-05-09 16:52:00,
2013-05-09 09:57:00,55.6,52.4,30.07,NNE,30,0.0,4.0,89,0.00,,,0.00,Wunderground v.1.15,2013-05-09 16:57:00,
2013-05-09 10:02:00,56.3,53.1,30.06,NNE,30,0.0,1.0,89,0.00,,,0.00,Wunderground v.1.15,2013-05-09 17:02:00,
2013-05-09 10:07:00,56.9,53.4,30.06,NNE,30,0.0,2.0,88,0.00,,,0.00,Wunderground v.1.15,2013-05-09 17:07:00,
2013-05-09 10:12:00,57.0,53.2,30.06,NNW,333,0.0,3.0,87,0.00,,,0.00,Wunderground v.1.15,2013-05-09 17:12:00,
2013-05-09 10:17:00,57.5,53.3,30.06,NNW,333,0.0,3.0,86,0.00,,,0.00,Wunderground v.1.15,2013-05-09 17:17:00,
2013-05-09 10:22:00,58.4,53.6,30.06,NNW,333,0.0,1.0,84,0.00,,,0.00,Wunderground v.1.15,2013-05-09 17:22:00,
2013-05-09 10:27:00,59.5,54.3,30.06,NNW,333,0.0,1.0,83,0.00,,,0.00,Wunderground v.1.15,2013-05-09 17:27:00,
2013-05-09 10:32:00,59.8,54.0,30.07,North,359,2.0,5.0,81,0.00,,,0.00,Wunderground v.1.15,2013-05-09 17:32:00,
2013-05-09 10:37:00,60.1,54.2,30.07,NW,321,2.0,5.0,81,0.00,,,0.00,Wunderground v.1.15,2013-05-09 17:37:00,
2013-05-09 10:42:00,60.2,54.0,30.07,WSW,253,4.0,5.0,80,0.00,,,0.00,Wunderground v.1.15,2013-05-09 17:42:00,
2013-05-09 10:47:00,60.4,54.2,30.06,ENE,60,1.0,6.0,80,0.00,,,0.00,Wunderground v.1.15,2013-05-09 17:47:00,
2013-05-09 10:52:00,60.4,53.9,30.06,WNW,299,1.0,5.0,79,0.00,,,0.00,Wunderground v.1.15,2013-05-09 17:52:00,
2013-05-09 10:57:00,60.4,54.2,30.06,West,259,3.0,5.0,80,0.00,,,0.00,Wunderground v.1.15,2013-05-09 17:57:00,
2013-05-09 11:02:00,60.7,54.1,30.06,North,5,3.0,4.0,79,0.00,,,0.00,Wunderground v.1.15,2013-05-09 18:02:00,
2013-05-09 11:07:00,60.4,53.5,30.06,North,359,0.0,5.0,78,0.00,,,0.00,Wunderground v.1.15,2013-05-09 18:07:00,
2013-05-09 11:12:00,60.5,54.0,30.06,North,349,3.0,5.0,79,0.00,,,0.00,Wunderground v.1.15,2013-05-09 18:12:00,
2013-05-09 11:17:00,60.5,54.0,30.06,NNW,335,3.0,7.0,79,0.00,,,0.00,Wunderground v.1.15,2013-05-09 18:17:00,
2013-05-09 11:22:00,60.1,53.6,30.06,NNW,348,3.0,6.0,79,0.00,,,0.00,Wunderground v.1.15,2013-05-09 18:22:00,
2013-05-09 11:27:00,59.9,53.4,30.06,North,2,1.0,7.0,79,0.00,,,0.00,Wunderground v.1.15,2013-05-09 18:27:00,
2013-05-09 11:32:00,59.8,53.3,30.06,NE,41,2.0,5.0,79,0.00,,,0.00,Wunderground v.1.15,2013-05-09 18:32:00,
2013-05-09 11:37:00,60.4,53.9,30.06,NNE,29,1.0,6.0,79,0.00,,,0.00,Wunderground v.1.15,2013-05-09 18:37:00,
2013-05-09 11:42:00,60.4,53.5,30.06,North,1,3.0,10.0,78,0.00,,,0.00,Wunderground v.1.15,2013-05-09 18:42:00,
2013-05-09 11:47:00,60.2,53.7,30.06,NNE,13,4.0,10.0,79,0.00,,,0.00,Wunderground v.1.15,2013-05-09 18:47:00,
2013-05-09 11:52:00,60.5,54.0,30.06,NW,317,1.0,4.0,79,0.00,,,0.00,Wunderground v.1.15,2013-05-09 18:52:00,
2013-05-09 11:57:00,61.2,54.3,30.06,NNW,329,1.0,7.0,78,0.00,,,0.00,Wunderground v.1.15,2013-05-09 18:57:00,
2013-05-09 12:02:00,61.2,54.3,30.06,North,354,2.0,7.0,78,0.00,,,0.00,Wunderground v.1.15,2013-05-09 19:02:00,
2013-05-09 12:07:00,61.5,54.2,30.06,NNE,20,2.0,7.0,77,0.00,,,0.00,Wunderground v.1.15,2013-05-09 19:07:00,
2013-05-09 12:12:00,60.9,53.6,30.06,East,93,3.0,8.0,77,0.00,,,0.00,Wunderground v.1.15,2013-05-09 19:12:00,
2013-05-09 12:17:00,60.7,53.4,30.06,SSE,158,3.0,8.0,77,0.00,,,0.00,Wunderground v.1.15,2013-05-09 19:17:00,
2013-05-09 12:22:00,60.9,53.6,30.06,NE,34,3.0,9.0,77,0.00,,,0.00,Wunderground v.1.15,2013-05-09 19:22:00,
2013-05-09 12:27:00,60.2,53.3,30.06,North,1,1.0,10.0,78,0.00,,,0.00,Wunderground v.1.15,2013-05-09 19:27:00,
2013-05-09 12:32:00,60.1,53.2,30.06,SW,226,4.0,5.0,78,0.00,,,0.00,Wunderground v.1.15,2013-05-09 19:32:00,
2013-05-09 12:37:00,60.5,53.6,30.06,North,0,2.0,10.0,78,0.00,,,0.00,Wunderground v.1.15,2013-05-09 19:37:00,
2013-05-09 12:42:00,61.3,53.7,30.06,NE,44,2.0,6.0,76,0.00,,,0.00,Wunderground v.1.15,2013-05-09 19:42:00,
2013-05-09 12:47:00,62.1,54.1,30.06,SSW,198,3.0,6.0,75,0.00,,,0.00,Wunderground v.1.15,2013-05-09 19:47:00,
2013-05-09 12:52:00,62.6,54.6,30.06,North,0,3.0,6.0,75,0.00,,,0.00,Wunderground v.1.15,2013-05-09 19:52:00,
2013-05-09 12:57:00,62.4,54.4,30.06,ESE,112,2.0,8.0,75,0.00,,,0.00,Wunderground v.1.15,2013-05-09 19:57:00,
2013-05-09 13:02:00,62.1,54.1,30.06,NNE,15,4.0,4.0,75,0.00,,,0.00,Wunderground v.1.15,2013-05-09 20:02:00,
2013-05-09 13:07:00,61.6,53.6,30.06,SSW,203,0.0,9.0,75,0.00,,,0.00,Wunderground v.1.15,2013-05-09 20:07:00,
2013-05-09 13:12:00,61.5,53.5,30.06,NE,55,1.0,7.0,75,0.00,,,0.00,Wunderground v.1.15,2013-05-09 20:12:00,
2013-05-09 13:17:00,61.5,53.9,30.06,NW,321,4.0,7.0,76,0.00,,,0.00,Wunderground v.1.15,2013-05-09 20:17:00,
2013-05-09 13:22:00,61.5,54.2,30.06,SSW,203,1.0,5.0,77,0.00,,,0.00,Wunderground v.1.15,2013-05-09 20:22:00,
2013-05-09 13:27:00,61.8,54.2,30.06,West,261,2.0,7.0,76,0.00,,,0.00,Wunderground v.1.15,2013-05-09 20:27:00,
2013-05-09 13:32:00,62.0,54.3,30.06,ESE,117,2.0,3.0,76,0.00,,,0.00,Wunderground v.1.15,2013-05-09 20:32:00,
2013-05-09 13:37:00,62.0,54.0,30.06,North,0,0.0,6.0,75,0.00,,,0.00,Wunderground v.1.15,2013-05-09 20:37:00,
2013-05-09 13:42:00,62.1,54.1,30.06,SSE,151,1.0,5.0,75,0.00,,,0.00,Wunderground v.1.15,2013-05-09 20:42:00,
2013-05-09 13:47:00,62.3,54.3,30.05,North,6,2.0,5.0,75,0.00,,,0.00,Wunderground v.1.15,2013-05-09 20:47:00,
2013-05-09 13:52:00,62.4,54.4,30.05,South,183,2.0,6.0,75,0.00,,,0.00,Wunderground v.1.15,2013-05-09 20:52:00,
2013-05-09 13:57:00,62.6,54.6,30.05,North,11,4.0,6.0,75,0.00,,,0.00,Wunderground v.1.15,2013-05-09 20:57:00,
2013-05-09 14:02:00,61.6,53.2,30.05,NNW,329,2.0,9.0,74,0.00,,,0.00,Wunderground v.1.15,2013-05-09 21:02:00,
2013-05-09 14:07:00,61.3,53.7,30.05,WSW,244,2.0,9.0,76,0.00,,,0.00,Wunderground v.1.15,2013-05-09 21:07:00,
2013-05-09 14:12:00,61.2,53.6,30.05,NE,41,0.0,6.0,76,0.00,,,0.00,Wunderground v.1.15,2013-05-09 21:12:00,
2013-05-09 14:17:00,60.4,53.2,30.05,North,1,0.0,7.0,77,0.00,,,0.00,Wunderground v.1.15,2013-05-09 21:17:00,
2013-05-09 14:22:00,59.9,53.4,30.05,SW,225,0.0,13.0,79,0.00,,,0.00,Wunderground v.1.15,2013-05-09 21:22:00,
2013-05-09 14:27:00,60.4,53.9,30.05,SE,125,3.0,13.0,79,0.00,,,0.00,Wunderground v.1.15,2013-05-09 21:27:00,
2013-05-09 14:32:00,61.2,53.9,30.04,North,10,1.0,6.0,77,0.00,,,0.00,Wunderground v.1.15,2013-05-09 21:32:00,
2013-05-09 14:37:00,60.7,53.8,30.04,NW,309,3.0,11.0,78,0.00,,,0.00,Wunderground v.1.15,2013-05-09 21:37:00,
2013-05-09 14:42:00,60.5,53.6,30.04,SSE,158,2.0,6.0,78,0.00,,,0.00,Wunderground v.1.15,2013-05-09 21:42:00,
2013-05-09 14:47:00,60.4,53.9,30.05,NNE,17,5.0,6.0,79,0.00,,,0.00,Wunderground v.1.15,2013-05-09 21:47:00,
2013-05-09 14:52:00,60.1,53.6,30.05,SE,144,2.0,12.0,79,0.00,,,0.00,Wunderground v.1.15,2013-05-09 21:52:00,
2013-05-09 14:57:00,59.8,53.3,30.05,SSW,195,1.0,12.0,79,0.00,,,0.00,Wunderground v.1.15,2013-05-09 21:57:00,
2013-05-09 15:02:00,60.1,53.6,30.04,ENE,66,0.0,11.0,79,0.00,,,0.00,Wunderground v.1.15,2013-05-09 22:02:00,
2013-05-09 15:07:00,61.2,54.6,30.04,North,0,1.0,11.0,79,0.00,,,0.00,Wunderground v.1.15,2013-05-09 22:07:00,
2013-05-09 15:12:00,61.6,54.0,30.04,North,0,3.0,5.0,76,0.00,,,0.00,Wunderground v.1.15,2013-05-09 22:12:00,
2013-05-09 15:17:00,61.2,53.9,30.04,NE,56,2.0,8.0,77,0.00,,,0.00,Wunderground v.1.15,2013-05-09 22:17:00,
2013-05-09 15:22:00,60.9,53.6,30.04,WNW,284,2.0,7.0,77,0.00,,,0.00,Wunderground v.1.15,2013-05-09 22:22:00,
2013-05-09 15:27:00,60.4,53.5,30.04,North,358,1.0,7.0,78,0.00,,,0.00,Wunderground v.1.15,2013-05-09 22:27:00,
2013-05-09 15:32:00,60.4,53.9,30.04,SW,222,0.0,6.0,79,0.00,,,0.00,Wunderground v.1.15,2013-05-09 22:32:00,
2013-05-09 15:37:00,60.5,54.0,30.04,ESE,103,2.0,9.0,79,0.00,,,0.00,Wunderground v.1.15,2013-05-09 22:37:00,
2013-05-09 15:42:00,60.4,53.9,30.04,East,87,1.0,10.0,79,0.00,,,0.00,Wunderground v.1.15,2013-05-09 22:42:00,
2013-05-09 15:47:00,60.5,53.6,30.03,ESE,108,1.0,10.0,78,0.00,,,0.00,Wunderground v.1.15,2013-05-09 22:47:00,
2013-05-09 15:52:00,60.1,53.6,30.03,SSE,165,0.0,11.0,79,0.00,,,0.00,Wunderground v.1.15,2013-05-09 22:52:00,
2013-05-09 15:57:00,59.3,53.5,30.03,ENE,71,0.0,11.0,81,0.00,,,0.00,Wunderground v.1.15,2013-05-09 22:57:00,
2013-05-09 16:02:00,59.3,53.1,30.03,NW,315,1.0,7.0,80,0.00,,,0.00,Wunderground v.1.15,2013-05-09 23:02:00,
2013-05-09 16:07:00,59.3,53.5,30.03,NNW,347,12.0,14.0,81,0.00,,,0.00,Wunderground v.1.15,2013-05-09 23:07:00,
2013-05-09 16:12:00,58.9,53.1,30.03,NNW,337,2.0,6.0,81,0.00,,,0.00,Wunderground v.1.15,2013-05-09 23:12:00,
2013-05-09 16:17:00,58.7,52.9,30.03,SSW,209,2.0,10.0,81,0.00,,,0.00,Wunderground v.1.15,2013-05-09 23:17:00,
2013-05-09 16:22:00,58.9,53.4,30.03,SE,144,2.0,4.0,82,0.00,,,0.00,Wunderground v.1.15,2013-05-09 23:22:00,
2013-05-09 16:27:00,58.6,53.1,30.03,South,176,3.0,9.0,82,0.00,,,0.00,Wunderground v.1.15,2013-05-09 23:27:00,
2013-05-09 16:32:00,58.4,53.3,30.03,SE,145,3.0,3.0,83,0.00,,,0.00,Wunderground v.1.15,2013-05-09 23:32:00,
2013-05-09 16:37:00,59.3,53.8,30.03,ESE,113,3.0,4.0,82,0.00,,,0.00,Wunderground v.1.15,2013-05-09 23:37:00,
2013-05-09 16:42:00,59.9,53.7,30.03,SE,140,1.0,3.0,80,0.00,,,0.00,Wunderground v.1.15,2013-05-09 23:42:00,
2013-05-09 16:47:00,59.6,53.4,30.02,North,349,3.0,6.0,80,0.00,,,0.00,Wunderground v.1.15,2013-05-09 23:47:00,
2013-05-09 16:52:00,59.2,53.0,30.02,East,100,0.0,3.0,80,0.00,,,0.00,Wunderground v.1.15,2013-05-09 23:52:00,
2013-05-09 16:57:00,58.7,53.2,30.02,NE,37,0.0,5.0,82,0.00,,,0.00,Wunderground v.1.15,2013-05-09 23:57:00,
2013-05-09 17:02:00,58.4,52.9,30.02,ENE,61,0.0,6.0,82,0.00,,,0.00,Wunderground v.1.15,2013-05-10 00:02:00,
2013-05-09 17:07:00,58.4,52.9,30.02,SSW,196,0.0,6.0,82,0.00,,,0.00,Wunderground v.1.15,2013-05-10 00:07:00,
2013-05-09 17:12:00,58.1,53.0,30.02,WSW,257,1.0,7.0,83,0.00,,,0.00,Wunderground v.1.15,2013-05-10 00:12:00,
2013-05-09 17:17:00,57.5,52.7,30.02,North,8,4.0,7.0,84,0.00,,,0.00,Wunderground v.1.15,2013-05-10 00:17:00,
2013-05-09 17:22:00,56.9,52.4,30.02,NNW,342,1.0,6.0,85,0.00,,,0.00,Wunderground v.1.15,2013-05-10 00:22:00,
2013-05-09 17:27:00,56.6,52.5,30.02,ENE,76,0.0,6.0,86,0.00,,,0.00,Wunderground v.1.15,2013-05-10 00:27:00,
2013-05-09 17:32:00,56.3,52.5,30.02,WSW,253,1.0,4.0,87,0.00,,,0.00,Wunderground v.1.15,2013-05-10 00:32:00,
2013-05-09 17:37:00,56.3,52.5,30.02,North,1,1.0,7.0,87,0.00,,,0.00,Wunderground v.1.15,2013-05-10 00:37:00,
2013-05-09 17:42:00,56.3,52.5,30.02,NNW,345,0.0,5.0,87,0.00,,,0.00,Wunderground v.1.15,2013-05-10 00:42:00,
2013-05-09 17:47:00,56.5,53.0,30.01,NNW,332,0.0,5.0,88,0.00,,,0.00,Wunderground v.1.15,2013-05-10 00:47:00,
2013-05-09 17:52:00,56.5,53.0,30.01,North,354,0.0,6.0,88,0.00,,,0.00,Wunderground v.1.15,2013-05-10 00:52:00,
2013-05-09 17:57:00,56.5,53.0,30.01,SE,145,2.0,6.0,88,0.00,,,0.00,Wunderground v.1.15,2013-05-10 00:57:00,
2013-05-09 18:02:00,56.5,53.0,30.01,NE,39,2.0,3.0,88,0.00,,,0.00,Wunderground v.1.15,2013-05-10 01:02:00,
2013-05-09 18:07:00,56.5,53.0,30.01,North,0,0.0,4.0,88,0.00,,,0.00,Wunderground v.1.15,2013-05-10 01:07:00,
2013-05-09 18:12:00,56.3,52.5,30.01,East,94,1.0,2.0,87,0.00,,,0.00,Wunderground v.1.15,2013-05-10 01:12:00,
2013-05-09 18:17:00,56.2,52.4,30.01,North,1,3.0,7.0,87,0.00,,,0.00,Wunderground v.1.15,2013-05-10 01:17:00,
2013-05-09 18:22:00,55.7,52.2,30.01,WNW,288,2.0,5.0,88,0.00,,,0.00,Wunderground v.1.15,2013-05-10 01:22:00,
2013-05-09 18:27:00,55.7,52.5,30.01,North,349,0.0,6.0,89,0.00,,,0.00,Wunderground v.1.15,2013-05-10 01:27:00,
2013-05-09 18:32:00,55.7,52.5,30.01,South,170,1.0,3.0,89,0.00,,,0.00,Wunderground v.1.15,2013-05-10 01:32:00,
2013-05-09 18:37:00,55.6,52.4,30.01,South,186,0.0,6.0,89,0.00,,,0.00,Wunderground v.1.15,2013-05-10 01:37:00,
2013-05-09 18:42:00,55.4,52.2,30.01,North,359,0.0,6.0,89,0.00,,,0.00,Wunderground v.1.15,2013-05-10 01:42:00,
2013-05-09 18:47:00,55.4,52.5,30.02,ENE,70,0.0,6.0,90,0.00,,,0.00,Wunderground v.1.15,2013-05-10 01:47:00,
2013-05-09 18:52:00,55.3,52.4,30.02,NW,309,0.0,6.0,90,0.00,,,0.00,Wunderground v.1.15,2013-05-10 01:52:00,
2013-05-09 18:57:00,55.3,52.4,30.02,NNW,341,0.0,6.0,90,0.00,,,0.00,Wunderground v.1.15,2013-05-10 01:57:00,
2013-05-09 19:02:00,55.1,52.2,30.02,North,352,0.0,6.0,90,0.00,,,0.00,Wunderground v.1.15,2013-05-10 02:02:00,
2013-05-09 19:08:00,55.1,52.5,30.02,NNE,18,0.0,6.0,91,0.00,,,0.00,Wunderground v.1.15,2013-05-10 02:08:00,
2013-05-09 19:13:00,55.0,52.4,30.02,NNW,339,0.0,3.0,91,0.00,,,0.00,Wunderground v.1.15,2013-05-10 02:13:00,
2013-05-09 19:18:00,55.0,52.4,30.02,East,94,0.0,3.0,91,0.00,,,0.00,Wunderground v.1.15,2013-05-10 02:18:00,
2013-05-09 19:23:00,54.8,52.2,30.02,NW,308,0.0,3.0,91,0.00,,,0.00,Wunderground v.1.15,2013-05-10 02:23:00,
2013-05-09 19:28:00,54.7,52.1,30.02,ENE,58,0.0,3.0,91,0.00,,,0.00,Wunderground v.1.15,2013-05-10 02:28:00,
2013-05-09 19:33:00,54.4,52.1,30.02,South,172,0.0,3.0,92,0.00,,,0.00,Wunderground v.1.15,2013-05-10 02:33:00,
2013-05-09 19:38:00,54.1,51.8,30.02,NNE,26,5.0,7.0,92,0.00,,,0.00,Wunderground v.1.15,2013-05-10 02:38:00,
2013-05-09 19:43:00,53.9,51.6,30.02,SW,229,0.0,2.0,92,0.00,,,0.00,Wunderground v.1.15,2013-05-10 02:43:00,
2013-05-09 19:48:00,53.8,51.8,30.03,NNE,28,0.0,10.0,93,0.00,,,0.00,Wunderground v.1.15,2013-05-10 02:48:00,
2013-05-09 19:53:00,53.6,51.6,30.03,NNE,18,0.0,2.0,93,0.00,,,0.00,Wunderground v.1.15,2013-05-10 02:53:00,
2013-05-09 19:58:00,53.5,51.8,30.03,East,95,1.0,4.0,94,0.00,,,0.00,Wunderground v.1.15,2013-05-10 02:58:00,
2013-05-09 20:03:00,53.5,51.8,30.02,NW,318,0.0,2.0,94,0.00,,,0.00,Wunderground v.1.15,2013-05-10 03:03:00,
2013-05-09 20:08:00,53.3,51.6,30.02,NNW,334,0.0,2.0,94,0.00,,,0.00,Wunderground v.1.15,2013-05-10 03:08:00,
2013-05-09 20:13:00,53.3,51.9,30.02,NW,320,0.0,2.0,95,0.00,,,0.00,Wunderground v.1.15,2013-05-10 03:13:00,
2013-05-09 20:18:00,53.2,51.8,30.02,NW,320,0.0,2.0,95,0.00,,,0.00,Wunderground v.1.15,2013-05-10 03:18:00,
2013-05-09 20:23:00,53.2,51.8,30.02,NE,46,0.0,3.0,95,0.00,,,0.00,Wunderground v.1.15,2013-05-10 03:23:00,
2013-05-09 20:28:00,53.1,52.0,30.02,SW,214,0.0,4.0,96,0.00,,,0.00,Wunderground v.1.15,2013-05-10 03:28:00,
2013-05-09 20:33:00,53.1,52.0,30.03,SSW,204,0.0,1.0,96,0.00,,,0.00,Wunderground v.1.15,2013-05-10 03:33:00,
2013-05-09 20:38:00,52.9,51.8,30.03,East,86,0.0,1.0,96,0.00,,,0.00,Wunderground v.1.15,2013-05-10 03:38:00,
2013-05-09 20:43:00,52.9,51.8,30.03,West,279,0.0,3.0,96,0.00,,,0.00,Wunderground v.1.15,2013-05-10 03:43:00,
2013-05-09 20:48:00,52.9,51.8,30.04,WSW,258,0.0,3.0,96,0.00,,,0.00,Wunderground v.1.15,2013-05-10 03:48:00,
2013-05-09 20:53:00,52.8,51.7,30.04,SE,137,0.0,1.0,96,0.00,,,0.00,Wunderground v.1.15,2013-05-10 03:53:00,
2013-05-09 20:58:00,52.8,51.7,30.04,SE,137,0.0,1.0,96,0.00,,,0.00,Wunderground v.1.15,2013-05-10 03:58:00,
2013-05-09 21:01:00,52.6,51.5,30.05,SE,136,0.0,0.0,96,0.00,,,0.00,Wunderground v.1.15,2013-05-10 04:01:00,
2013-05-09 21:06:00,52.6,51.5,30.05,SE,141,0.0,1.0,96,0.00,,,0.00,Wunderground v.1.15,2013-05-10 04:06:00,
2013-05-09 21:11:00,52.5,51.4,30.05,North,0,0.0,0.0,96,0.00,,,0.00,Wunderground v.1.15,2013-05-10 04:11:00,
2013-05-09 21:16:00,52.5,51.7,30.05,WNW,300,0.0,2.0,97,0.00,,,0.00,Wunderground v.1.15,2013-05-10 04:16:00,
2013-05-09 21:21:00,52.3,51.5,30.05,WNW,300,0.0,0.0,97,0.00,,,0.00,Wunderground v.1.15,2013-05-10 04:21:00,
2013-05-09 21:26:00,52.3,51.5,30.05,WNW,300,0.0,0.0,97,0.00,,,0.00,Wunderground v.1.15,2013-05-10 04:26:00,
2013-05-09 21:31:00,52.2,51.4,30.06,WNW,300,0.0,0.0,97,0.00,,,0.00,Wunderground v.1.15,2013-05-10 04:31:00,
2013-05-09 21:36:00,52.2,51.4,30.06,WNW,300,0.0,1.0,97,0.00,,,0.00,Wunderground v.1.15,2013-05-10 04:36:00,
2013-05-09 21:41:00,52.0,51.2,30.06,WNW,300,0.0,0.0,97,0.00,,,0.00,Wunderground v.1.15,2013-05-10 04:41:00,
2013-05-09 21:46:00,52.0,51.2,30.06,WNW,300,0.0,1.0,97,0.00,,,0.00,Wunderground v.1.15,2013-05-10 04:46:00,
2013-05-09 21:51:00,51.9,51.1,30.06,WNW,300,0.0,0.0,97,0.00,,,0.00,Wunderground v.1.15,2013-05-10 04:51:00,
2013-05-09 21:56:00,51.9,51.1,30.06,WNW,293,0.0,0.0,97,0.00,,,0.00,Wunderground v.1.15,2013-05-10 04:56:00,
2013-05-09 22:01:00,51.9,51.4,30.06,WNW,293,0.0,0.0,98,0.00,,,0.00,Wunderground v.1.15,2013-05-10 05:01:00,
2013-05-09 22:06:00,51.7,51.2,30.06,WNW,293,0.0,0.0,98,0.00,,,0.00,Wunderground v.1.15,2013-05-10 05:06:00,
2013-05-09 22:11:00,51.7,51.2,30.06,WNW,293,0.0,0.0,98,0.00,,,0.00,Wunderground v.1.15,2013-05-10 05:11:00,
2013-05-09 22:16:00,51.6,51.1,30.06,WNW,293,0.0,0.0,98,0.00,,,0.00,Wunderground v.1.15,2013-05-10 05:16:00,
2013-05-09 22:21:00,51.4,50.9,30.06,WNW,293,0.0,0.0,98,0.00,,,0.00,Wunderground v.1.15,2013-05-10 05:21:00,
2013-05-09 22:26:00,51.3,50.8,30.06,WNW,293,0.0,0.0,98,0.00,,,0.00,Wunderground v.1.15,2013-05-10 05:26:00,
2013-05-09 22:31:00,51.1,50.6,30.06,WNW,293,0.0,0.0,98,0.00,,,0.00,Wunderground v.1.15,2013-05-10 05:31:00,
2013-05-09 22:36:00,51.0,50.7,30.06,WNW,293,0.0,0.0,99,0.00,,,0.00,Wunderground v.1.15,2013-05-10 05:36:00,
2013-05-09 22:41:00,50.8,50.5,30.06,WNW,293,0.0,0.0,99,0.00,,,0.00,Wunderground v.1.15,2013-05-10 05:41:00,
2013-05-09 22:46:00,50.8,50.5,30.06,WNW,293,0.0,0.0,99,0.00,,,0.00,Wunderground v.1.15,2013-05-10 05:46:00,
2013-05-09 22:51:00,50.7,50.4,30.06,WNW,293,0.0,0.0,99,0.00,,,0.00,Wunderground v.1.15,2013-05-10 05:51:00,
2013-05-09 22:56:00,50.5,50.2,30.06,WNW,293,0.0,0.0,99,0.00,,,0.00,Wunderground v.1.15,2013-05-10 05:56:00,
2013-05-09 23:01:00,50.5,50.2,30.06,WNW,293,0.0,0.0,99,0.00,,,0.00,Wunderground v.1.15,2013-05-10 06:01:00,
2013-05-09 23:06:00,50.4,50.4,30.06,WNW,293,0.0,0.0,100,0.00,,,0.00,Wunderground v.1.15,2013-05-10 06:06:00,
2013-05-09 23:11:00,50.4,50.4,30.06,WNW,293,0.0,0.0,100,0.00,,,0.00,Wunderground v.1.15,2013-05-10 06:11:00,
2013-05-09 23:16:00,50.2,50.2,30.07,WNW,293,0.0,0.0,100,0.00,,,0.00,Wunderground v.1.15,2013-05-10 06:16:00,
2013-05-09 23:21:00,50.2,50.2,30.07,WNW,293,0.0,0.0,100,0.00,,,0.00,Wunderground v.1.15,2013-05-10 06:21:00,
2013-05-09 23:26:00,50.1,50.1,30.07,WNW,293,0.0,0.0,100,0.00,,,0.00,Wunderground v.1.15,2013-05-10 06:26:00,
2013-05-09 23:31:00,49.9,49.9,30.07,WNW,293,0.0,0.0,100,0.00,,,0.00,Wunderground v.1.15,2013-05-10 06:31:00,
2013-05-09 23:36:00,49.8,49.8,30.07,WNW,293,0.0,0.0,100,0.00,,,0.00,Wunderground v.1.15,2013-05-10 06:36:00,
2013-05-09 23:41:00,49.8,49.8,30.07,WNW,293,0.0,0.0,100,0.00,,,0.00,Wunderground v.1.15,2013-05-10 06:41:00,
2013-05-09 23:46:00,49.8,49.8,30.07,WNW,293,0.0,0.0,100,0.00,,,0.00,Wunderground v.1.15,2013-05-10 06:46:00,
2013-05-09 23:51:00,49.6,49.6,30.07,WNW,293,0.0,0.0,100,0.00,,,0.00,Wunderground v.1.15,2013-05-10 06:51:00,
2013-05-09 23:56:00,49.6,49.6,30.07,WNW,293,0.0,0.0,100,0.00,,,0.00,Wunderground v.1.15,2013-05-10 06:56:00,